Time;durP1;ratioP1;P1;durP2;ratioP2;P2;SDS_P1;SDS_P2;PMS_P1;PMS_P2;Temp;Humidity;BMP_temperature;BMP_pressure;BME280_temperature;BME280_humidity;BME280_pressure;Samples;Min_cycle;Max_cycle;Signal;HPM_P1;HPM_P2
2023/07/25 00:00:08;;;;;;;26.02;15.40;;;;;;;22.81;77.63;99545.53;5014228;28;20029;-73
2023/07/25 00:02:34;;;;;;;22.73;14.13;;;;;;;22.75;77.50;99549.50;5012981;28;20115;-73
2023/07/25 00:04:59;;;;;;;23.42;15.20;;;;;;;22.57;77.74;99514.75;5015402;28;20026;-71
2023/07/25 00:07:25;;;;;;;24.90;15.75;;;;;;;22.67;77.70;99522.44;5015207;28;20561;-73
2023/07/25 00:09:50;;;;;;;23.92;14.90;;;;;;;22.72;77.95;99535.66;5010248;28;20033;-72
2023/07/25 00:12:16;;;;;;;27.33;15.85;;;;;;;22.72;77.88;99534.84;5013772;28;20476;-72
2023/07/25 00:14:41;;;;;;;25.73;16.23;;;;;;;22.61;80.56;99533.69;5012994;28;20029;-72
2023/07/25 00:17:07;;;;;;;26.13;16.70;;;;;;;22.45;81.24;99515.47;5011805;28;20535;-75
2023/07/25 00:19:32;;;;;;;25.88;16.83;;;;;;;22.33;81.59;99523.44;5010269;28;20033;-74
2023/07/25 00:21:57;;;;;;;30.70;18.00;;;;;;;22.42;81.74;99547.53;5014367;28;20594;-75
2023/07/25 00:24:23;;;;;;;30.50;17.90;;;;;;;22.34;82.00;99543.00;5011178;28;20022;-75
2023/07/25 00:26:48;;;;;;;27.13;17.48;;;;;;;22.24;82.76;99536.91;5013230;28;20034;-74
2023/07/25 00:29:13;;;;;;;28.92;17.15;;;;;;;22.09;82.93;99526.69;5012231;28;20060;-74
2023/07/25 00:31:39;;;;;;;31.08;17.55;;;;;;;22.24;82.70;99546.84;5012461;28;20033;-74
2023/07/25 00:34:06;;;;;;;28.40;16.65;;;;;;;22.22;82.48;99560.59;5015840;28;20034;-75
2023/07/25 00:36:32;;;;;;;27.80;16.50;;;;;;;22.22;82.45;99560.59;5014644;28;20112;-75
2023/07/25 00:38:57;;;;;;;25.17;16.17;;;;;;;22.14;82.70;99545.28;5016886;28;20589;-75
2023/07/25 00:41:22;;;;;;;25.58;16.58;;;;;;;22.14;82.80;99552.53;5015795;28;20025;-75
2023/07/25 00:43:48;;;;;;;30.05;17.63;;;;;;;22.01;82.66;99539.03;5014589;28;20029;-74
2023/07/25 00:46:15;;;;;;;28.00;16.65;;;;;;;22.08;82.84;99558.09;5014460;28;20512;-75
2023/07/25 00:48:41;;;;;;;29.58;17.48;;;;;;;21.96;82.89;99557.22;5015249;28;20476;-74
2023/07/25 00:51:06;;;;;;;28.70;17.23;;;;;;;21.79;83.46;99541.97;5015985;28;20040;-74
2023/07/25 00:53:32;;;;;;;30.80;17.23;;;;;;;21.70;83.63;99528.59;5010926;28;20025;-74
2023/07/25 00:55:57;;;;;;;28.60;16.52;;;;;;;21.80;83.10;99557.72;5010397;28;20026;-74
2023/07/25 00:58:23;;;;;;;25.65;16.75;;;;;;;21.81;83.28;99556.63;5014083;28;20029;-74
2023/07/25 01:00:49;;;;;;;28.58;16.75;;;;;;;21.92;83.11;99573.13;5013609;28;20072;-75
2023/07/25 01:03:14;;;;;;;29.58;16.60;;;;;;;21.92;82.61;99573.13;5017347;28;20085;-75
2023/07/25 01:05:45;;;;;;;29.13;17.35;;;;;;;21.85;82.91;99578.97;5003820;28;20037;-75
2023/07/25 01:08:10;;;;;;;30.70;17.25;;;;;;;21.68;83.02;99557.59;5012063;28;20041;-74
2023/07/25 01:10:38;;;;;;;28.70;17.10;;;;;;;21.75;82.71;99560.56;5010141;28;20955;-75
2023/07/25 01:13:05;;;;;;;28.00;16.48;;;;;;;21.85;82.44;99567.47;5013256;28;20026;-74
2023/07/25 01:15:31;;;;;;;26.98;15.95;;;;;;;21.76;83.07;99564.81;5011986;28;20108;-75
2023/07/25 01:17:57;;;;;;;25.00;15.88;;;;;;;21.85;82.68;99596.97;5012618;28;20076;-74
2023/07/25 01:20:23;;;;;;;26.05;15.45;;;;;;;21.75;82.63;99570.50;5012157;28;20030;-73
2023/07/25 01:22:50;;;;;;;25.35;16.17;;;;;;;21.84;82.31;99572.06;5014207;28;20416;-77
2023/07/25 01:25:16;;;;;;;26.00;16.45;;;;;;;21.88;82.08;99561.47;5010663;28;20030;-74
2023/07/25 01:27:41;;;;;;;27.95;16.08;;;;;;;21.83;82.49;99534.84;5014783;28;20026;-75
2023/07/25 01:30:09;;;;;;;28.70;16.50;;;;;;;21.86;82.31;99564.50;5013912;28;20052;-75
2023/07/25 01:32:34;;;;;;;27.45;17.10;;;;;;;21.71;82.56;99535.50;5018264;28;20387;-73
2023/07/25 01:35:00;;;;;;;26.77;15.55;;;;;;;21.85;82.34;99548.72;5018562;28;20022;-74
2023/07/25 01:37:25;;;;;;;25.73;16.23;;;;;;;21.83;82.45;99538.31;5018552;28;20748;-75
2023/07/25 01:39:51;;;;;;;27.40;16.17;;;;;;;21.80;82.17;99549.69;5018924;28;20029;-73
2023/07/25 01:42:16;;;;;;;25.35;15.85;;;;;;;21.83;81.96;99554.38;5015356;28;20029;-73
2023/07/25 01:44:41;;;;;;;27.88;16.40;;;;;;;21.71;81.96;99532.84;5031963;28;20029;-73
2023/07/25 01:47:07;;;;;;;31.55;16.92;;;;;;;21.73;81.98;99527.16;5015662;28;20034;-74
2023/07/25 01:49:32;;;;;;;25.65;16.15;;;;;;;21.76;81.79;99527.28;5014758;28;20048;-73
2023/07/25 01:51:58;;;;;;;27.95;16.40;;;;;;;21.91;81.49;99533.22;5016029;28;20442;-72
2023/07/25 01:54:23;;;;;;;29.45;16.23;;;;;;;21.88;81.44;99527.44;5023744;28;20034;-74
2023/07/25 01:56:49;;;;;;;26.70;16.02;;;;;;;21.78;81.66;99532.34;5029466;28;20061;-74
2023/07/25 01:59:14;;;;;;;26.45;16.00;;;;;;;21.80;81.76;99533.59;5015417;28;20044;-73
2023/07/25 02:01:39;;;;;;;25.67;15.88;;;;;;;21.68;81.98;99514.72;5016613;28;20032;-73
2023/07/25 02:04:05;;;;;;;30.27;16.17;;;;;;;21.74;81.58;99532.22;5013652;28;20095;-76
2023/07/25 02:06:30;;;;;;;30.02;15.77;;;;;;;21.71;81.80;99527.47;5013028;28;20052;-73
2023/07/25 02:08:56;;;;;;;27.27;15.75;;;;;;;21.75;81.65;99528.41;5016208;28;20028;-74
2023/07/25 02:11:21;;;;;;;27.75;15.95;;;;;;;21.72;81.63;99531.75;5016693;28;20026;-76
2023/07/25 02:13:46;;;;;;;26.23;15.82;;;;;;;21.71;81.63;99540.88;5017551;28;20025;-74
2023/07/25 02:16:12;;;;;;;24.95;15.73;;;;;;;21.76;81.64;99554.09;5016131;28;20041;-76
2023/07/25 02:18:37;;;;;;;28.13;16.20;;;;;;;21.71;81.50;99556.94;5014635;28;20123;-75
2023/07/25 02:21:03;;;;;;;32.33;16.30;;;;;;;21.67;81.69;99556.03;5016610;28;20106;-73
2023/07/25 02:23:28;;;;;;;29.52;15.98;;;;;;;21.70;81.43;99555.38;5013588;28;20033;-76
2023/07/25 02:25:53;;;;;;;27.10;15.38;;;;;;;21.49;81.94;99533.06;5015497;28;20022;-71
2023/07/25 02:28:19;;;;;;;25.83;15.50;;;;;;;21.62;81.92;99580.28;5014700;28;20026;-71
2023/07/25 02:30:46;;;;;;;23.58;15.25;;;;;;;21.69;82.82;99626.16;5017249;28;20021;-72
2023/07/25 02:33:11;;;;;;;27.80;15.70;;;;;;;21.51;84.22;99660.22;5046281;28;20088;-72
2023/07/25 02:35:37;;;;;;;29.58;15.95;;;;;;;21.42;84.95;99704.97;5014649;28;20038;-71
2023/07/25 02:38:02;;;;;;;26.75;16.55;;;;;;;21.27;85.54;99711.53;5014358;28;20041;-72
2023/07/25 02:40:28;;;;;;;28.88;15.85;;;;;;;21.42;84.96;99715.69;5014204;28;20037;-71
2023/07/25 02:42:53;;;;;;;25.30;15.85;;;;;;;21.36;84.63;99682.88;5015246;28;20072;-72
2023/07/25 02:45:18;;;;;;;26.20;15.77;;;;;;;21.47;83.98;99686.06;5013064;28;20026;-71
2023/07/25 02:47:44;;;;;;;25.38;15.88;;;;;;;21.51;84.19;99710.34;5017317;28;20025;-71
2023/07/25 02:50:09;;;;;;;27.00;15.63;;;;;;;21.48;84.23;99709.06;5016640;28;20026;-72
2023/07/25 02:52:35;;;;;;;28.92;16.42;;;;;;;21.57;83.69;99722.47;5013456;28;20384;-71
2023/07/25 02:55:00;;;;;;;27.08;15.63;;;;;;;21.60;83.73;99709.22;5014533;28;20109;-71
2023/07/25 02:57:26;;;;;;;26.92;16.48;;;;;;;21.60;83.02;99684.34;5014343;28;20022;-72
2023/07/25 02:59:51;;;;;;;26.48;15.93;;;;;;;21.65;82.90;99686.84;5014651;28;20512;-73
2023/07/25 03:02:16;;;;;;;29.65;16.45;;;;;;;21.73;82.75;99693.31;5015220;28;20022;-74
2023/07/25 03:04:42;;;;;;;26.25;16.80;;;;;;;21.74;82.13;99694.88;5014701;28;20033;-76
2023/07/25 03:07:07;;;;;;;23.92;14.95;;;;;;;21.75;82.02;99702.59;5015795;28;20037;-72
2023/07/25 03:09:33;;;;;;;23.25;15.18;;;;;;;21.62;81.83;99703.53;5009245;28;20068;-71
2023/07/25 03:11:58;;;;;;;28.13;16.67;;;;;;;21.77;81.98;99743.28;5015798;28;20016;-72
2023/07/25 03:14:23;;;;;;;27.67;17.05;;;;;;;21.80;81.99;99758.72;5014079;28;20097;-73
2023/07/25 03:17:08;;;;;;;30.03;16.83;;;;;;;21.82;81.82;99758.41;5014588;28;20108;-72
2023/07/25 03:19:33;;;;;;;28.15;16.58;;;;;;;21.75;81.53;99740.13;5012700;28;20404;-71
2023/07/25 03:21:59;;;;;;;28.60;16.02;;;;;;;21.91;81.35;99710.16;5011773;28;20034;-72
2023/07/25 03:24:24;;;;;;;30.33;16.10;;;;;;;21.90;81.77;99687.91;5011840;28;20030;-71
2023/07/25 03:26:49;;;;;;;31.20;16.13;;;;;;;21.85;82.05;99688.88;5015973;28;20466;-72
2023/07/25 03:29:15;;;;;;;28.73;15.48;;;;;;;21.93;82.05;99711.41;5025667;28;20109;-71
2023/07/25 03:31:40;;;;;;;32.72;17.08;;;;;;;21.92;81.95;99674.22;5012139;28;20496;-72
2023/07/25 03:34:07;;;;;;;30.10;16.33;;;;;;;21.93;81.82;99644.38;5014044;28;20057;-71
2023/07/25 03:36:32;;;;;;;32.20;16.98;;;;;;;21.93;81.59;99622.94;5017833;28;20887;-72
2023/07/25 03:38:58;;;;;;;32.42;16.48;;;;;;;21.91;81.10;99619.81;5014851;28;20033;-72
2023/07/25 03:41:23;;;;;;;26.80;15.93;;;;;;;22.01;80.99;99645.50;5009716;28;20381;-72
2023/07/25 03:43:48;;;;;;;30.05;16.73;;;;;;;21.98;81.38;99657.66;5022352;28;20034;-72
2023/07/25 03:46:14;;;;;;;28.80;16.08;;;;;;;21.98;81.82;99657.66;5017364;28;20550;-72
2023/07/25 03:48:39;;;;;;;29.30;16.10;;;;;;;21.93;82.68;99652.44;5012891;28;20498;-72
2023/07/25 03:51:05;;;;;;;30.35;16.38;;;;;;;21.86;82.34;99628.81;5014269;28;20029;-72
2023/07/25 03:53:30;;;;;;;28.25;15.70;;;;;;;21.86;82.65;99634.19;5012919;28;20431;-73
2023/07/25 03:55:55;;;;;;;35.75;15.70;;;;;;;21.83;82.46;99618.72;5012677;28;20030;-72
2023/07/25 03:58:21;;;;;;;24.38;15.82;;;;;;;21.84;82.23;99598.09;5019608;28;20061;-71
2023/07/25 04:00:46;;;;;;;26.95;16.38;;;;;;;21.68;82.14;99568.31;5013694;28;20038;-70
2023/07/25 04:03:11;;;;;;;29.75;16.25;;;;;;;21.79;82.68;99582.94;5016593;28;20479;-73
2023/07/25 04:05:37;;;;;;;26.15;15.20;;;;;;;21.83;83.28;99607.22;5014585;28;20061;-72
2023/07/25 04:08:02;;;;;;;24.30;14.93;;;;;;;21.88;82.90;99613.19;5017045;28;20025;-72
2023/07/25 04:10:28;;;;;;;29.27;16.23;;;;;;;21.82;82.82;99601.06;5015827;28;20036;-72
2023/07/25 04:12:53;;;;;;;26.85;15.52;;;;;;;21.87;82.42;99592.06;5014256;28;20028;-71
2023/07/25 04:15:18;;;;;;;28.90;15.68;;;;;;;21.86;82.53;99566.34;5016593;28;20033;-72
2023/07/25 04:17:44;;;;;;;30.58;15.98;;;;;;;21.99;82.39;99586.03;5013144;28;20053;-72
2023/07/25 04:20:09;;;;;;;28.52;15.57;;;;;;;21.96;82.44;99579.44;5016518;28;20087;-72
2023/07/25 04:22:35;;;;;;;27.13;15.30;;;;;;;22.09;82.45;99583.00;5011221;28;20037;-71
2023/07/25 04:25:00;;;;;;;27.27;14.68;;;;;;;22.07;81.74;99543.09;5009217;28;20113;-71
2023/07/25 04:27:28;;;;;;;27.52;14.75;;;;;;;22.14;81.64;99521.16;5011733;28;20487;-71
2023/07/25 04:29:53;;;;;;;28.00;15.95;;;;;;;22.20;81.42;99546.72;5015732;28;20022;-70
2023/07/25 04:32:19;;;;;;;29.70;15.07;;;;;;;22.26;81.25;99566.06;5012870;28;20109;-72
2023/07/25 04:34:44;;;;;;;31.25;16.05;;;;;;;22.26;81.39;99574.13;5012132;28;20271;-71
2023/07/25 04:37:10;;;;;;;30.40;15.77;;;;;;;22.26;81.58;99571.44;5014440;28;20484;-71
2023/07/25 04:39:35;;;;;;;25.00;15.00;;;;;;;22.37;81.76;99587.97;5012751;28;20034;-71
2023/07/25 04:42:00;;;;;;;31.48;15.85;;;;;;;22.20;81.83;99548.59;5012000;28;20028;-73
2023/07/25 04:44:26;;;;;;;34.97;16.52;;;;;;;22.40;82.41;99571.22;5009098;28;20120;-72
2023/07/25 04:46:51;;;;;;;33.10;16.13;;;;;;;22.48;82.47;99576.53;5012965;28;20030;-71
2023/07/25 04:49:16;;;;;;;29.38;16.13;;;;;;;22.54;81.99;99598.59;5020361;28;20033;-72
2023/07/25 04:51:42;;;;;;;28.92;15.82;;;;;;;22.57;82.16;99594.47;5012886;28;20136;-73
2023/07/25 04:54:07;;;;;;;24.33;14.68;;;;;;;22.51;80.96;99581.25;5011326;28;20042;-74
2023/07/25 04:56:33;;;;;;;24.73;14.13;;;;;;;22.64;80.77;99592.84;5015404;28;20033;-75
2023/07/25 04:58:58;;;;;;;24.10;14.05;;;;;;;22.66;80.64;99605.94;5009339;28;20025;-73
2023/07/25 05:01:24;;;;;;;35.30;14.73;;;;;;;22.70;80.21;99607.66;5011350;28;20121;-73
2023/07/25 05:03:49;;;;;;;30.17;14.80;;;;;;;22.75;79.89;99603.19;5014306;28;20029;-73
2023/07/25 05:06:14;;;;;;;27.73;14.05;;;;;;;22.73;80.30;99590.91;5015628;28;20026;-72
2023/07/25 05:08:40;;;;;;;30.45;14.82;;;;;;;22.67;79.88;99569.94;5012221;28;20040;-72
2023/07/25 05:11:06;;;;;;;31.05;15.07;;;;;;;22.77;80.38;99558.84;5020874;28;20549;-72
2023/07/25 05:13:34;;;;;;;29.15;13.75;;;;;;;22.86;80.16;99558.75;5016012;28;20104;-75
2023/07/25 05:16:00;;;;;;;26.30;13.98;;;;;;;22.92;79.79;99560.91;5015757;28;20515;-74
2023/07/25 05:18:25;;;;;;;29.63;14.07;;;;;;;22.99;78.96;99565.03;5015597;28;20127;-72
2023/07/25 05:20:50;;;;;;;32.97;15.18;;;;;;;23.04;79.20;99568.28;5032108;28;20440;-73
2023/07/25 05:23:16;;;;;;;27.23;14.68;;;;;;;23.05;78.58;99563.69;5014560;28;20073;-74
2023/07/25 05:25:43;;;;;;;29.17;14.32;;;;;;;23.05;78.29;99548.38;5016689;28;20484;-71
2023/07/25 05:28:08;;;;;;;29.30;15.25;;;;;;;23.07;78.87;99556.88;5015903;28;20573;-72
2023/07/25 05:30:33;;;;;;;35.05;15.13;;;;;;;23.07;78.33;99540.78;5015468;28;20026;-71
2023/07/25 05:32:59;;;;;;;47.42;15.88;;;;;;;23.10;78.70;99542.78;5012113;28;20022;-71
2023/07/25 05:35:24;;;;;;;36.05;15.68;;;;;;;23.11;78.84;99544.38;5014442;28;20028;-72
2023/07/25 05:37:49;;;;;;;25.85;14.02;;;;;;;23.20;78.21;99563.09;5020944;28;20121;-72
2023/07/25 05:40:15;;;;;;;30.60;14.93;;;;;;;23.26;77.89;99585.16;5016686;28;20478;-73
2023/07/25 05:42:40;;;;;;;27.73;14.23;;;;;;;23.32;77.60;99583.84;5014345;28;20018;-71
2023/07/25 05:45:06;;;;;;;28.73;15.23;;;;;;;23.46;76.60;99589.69;5017235;28;20038;-73
2023/07/25 05:47:31;;;;;;;27.35;15.13;;;;;;;23.58;75.69;99575.53;5016386;28;20045;-71
2023/07/25 05:49:57;;;;;;;26.80;13.95;;;;;;;23.74;75.65;99554.22;5017684;28;20029;-72
2023/07/25 05:52:22;;;;;;;23.67;13.65;;;;;;;23.88;74.92;99565.44;5017553;28;20026;-72
2023/07/25 05:54:49;;;;;;;26.52;14.70;;;;;;;23.99;74.95;99566.56;5015106;28;20120;-73
2023/07/25 05:57:15;;;;;;;24.42;14.13;;;;;;;24.00;72.85;99559.28;5014696;28;20021;-72
2023/07/25 05:59:42;;;;;;;24.23;13.65;;;;;;;24.15;72.43;99576.66;5016132;28;20510;-72
2023/07/25 06:02:08;;;;;;;26.02;14.00;;;;;;;24.19;70.51;99577.56;5012795;28;20021;-73
2023/07/25 06:04:33;;;;;;;27.95;14.40;;;;;;;24.18;71.36;99563.31;5016761;28;20037;-73
2023/07/25 06:06:59;;;;;;;23.48;14.07;;;;;;;24.20;71.67;99542.22;5016208;28;20071;-74
2023/07/25 06:09:24;;;;;;;26.27;14.43;;;;;;;24.34;71.51;99536.50;5015802;28;20040;-72
2023/07/25 06:11:49;;;;;;;31.80;13.10;;;;;;;24.42;70.57;99522.16;5015450;28;20026;-72
2023/07/25 06:14:15;;;;;;;24.08;13.77;;;;;;;24.52;71.43;99514.75;5013701;28;20049;-72
2023/07/25 06:16:40;;;;;;;31.77;14.63;;;;;;;24.71;70.04;99524.91;5017477;28;20026;-72
2023/07/25 06:19:06;;;;;;;27.33;13.70;;;;;;;24.84;69.46;99534.53;5014798;28;20152;-72
2023/07/25 06:21:31;;;;;;;26.48;13.80;;;;;;;24.87;68.48;99531.16;5013882;28;20068;-73
2023/07/25 06:23:57;;;;;;;24.23;13.75;;;;;;;25.00;68.42;99537.28;5015826;28;20084;-74
2023/07/25 06:26:23;;;;;;;27.23;14.73;;;;;;;24.98;68.74;99524.16;5015465;28;20021;-74
2023/07/25 06:28:48;;;;;;;24.85;13.25;;;;;;;25.19;66.95;99534.00;5016485;28;20425;-74
2023/07/25 06:31:14;;;;;;;24.13;12.70;;;;;;;25.18;66.51;99518.94;5017536;28;20482;-73
2023/07/25 06:33:39;;;;;;;22.45;13.35;;;;;;;25.30;66.61;99524.25;5014161;28;20075;-74
2023/07/25 06:36:05;;;;;;;20.63;12.73;;;;;;;25.37;65.82;99526.38;5014069;28;20087;-74
2023/07/25 06:38:30;;;;;;;25.25;13.80;;;;;;;25.16;66.32;99478.81;5016976;28;20029;-73
2023/07/25 06:40:56;;;;;;;20.73;12.85;;;;;;;25.59;67.29;99533.84;5016200;28;20025;-77
2023/07/25 06:43:22;;;;;;;24.30;13.07;;;;;;;25.67;67.12;99542.94;5014739;28;20029;-77
2023/07/25 06:45:50;;;;;;;23.67;13.55;;;;;;;25.65;67.62;99507.44;5014132;28;20119;-76
2023/07/25 06:48:15;;;;;;;20.00;12.35;;;;;;;25.78;67.40;99524.31;5013074;28;20056;-77
2023/07/25 06:50:42;;;;;;;24.25;13.00;;;;;;;25.84;66.84;99507.50;5016369;28;20053;-73
2023/07/25 06:53:07;;;;;;;26.00;13.63;;;;;;;25.96;66.03;99506.66;5014642;28;20026;-74
2023/07/25 06:55:32;;;;;;;23.17;13.77;;;;;;;26.05;66.75;99509.16;5013196;28;20579;-74
2023/07/25 06:57:58;;;;;;;21.90;12.05;;;;;;;26.10;65.96;99501.59;5018211;28;20387;-74
2023/07/25 07:00:23;;;;;;;29.02;13.10;;;;;;;26.10;66.12;99481.94;5016425;28;20407;-74
2023/07/25 07:02:48;;;;;;;25.17;13.23;;;;;;;26.19;65.21;99474.41;5013411;28;20033;-74
2023/07/25 07:05:14;;;;;;;26.38;13.10;;;;;;;26.24;65.90;99490.34;5017252;28;20017;-73
2023/07/25 07:07:40;;;;;;;22.75;12.60;;;;;;;26.35;63.24;99498.66;5015762;28;20064;-73
2023/07/25 07:10:06;;;;;;;21.27;12.77;;;;;;;26.35;61.76;99487.09;5016032;28;20515;-74
2023/07/25 07:12:31;;;;;;;24.88;12.98;;;;;;;26.38;63.95;99470.94;5011389;28;20041;-72
2023/07/25 07:14:57;;;;;;;23.63;12.60;;;;;;;26.57;65.95;99472.91;5014419;28;20033;-74
2023/07/25 07:17:22;;;;;;;29.77;14.02;;;;;;;26.62;65.68;99471.84;5016687;28;20026;-77
2023/07/25 07:19:48;;;;;;;22.40;13.20;;;;;;;26.58;65.40;99458.28;5020430;28;20506;-77
2023/07/25 07:22:13;;;;;;;27.20;13.27;;;;;;;26.56;65.05;99446.28;5014440;28;20137;-77
2023/07/25 07:24:40;;;;;;;22.77;12.40;;;;;;;26.82;64.30;99473.41;5012320;28;20045;-78
2023/07/25 07:27:05;;;;;;;19.23;12.10;;;;;;;26.89;64.77;99470.06;5010740;28;20436;-77
2023/07/25 07:29:31;;;;;;;22.90;13.88;;;;;;;26.92;63.95;99475.53;5015338;28;20020;-74
2023/07/25 07:31:56;;;;;;;24.92;12.45;;;;;;;27.06;64.68;99495.88;5012396;28;20022;-73
2023/07/25 07:34:22;;;;;;;28.13;13.77;;;;;;;27.06;66.32;99480.44;5012431;28;20486;-74
2023/07/25 07:36:47;;;;;;;30.58;13.32;;;;;;;27.18;66.12;99474.06;5016845;28;20034;-74
2023/07/25 07:39:12;;;;;;;26.17;13.88;;;;;;;27.27;63.79;99463.03;5015067;28;20121;-75
2023/07/25 07:41:38;;;;;;;24.73;13.57;;;;;;;27.30;64.05;99443.41;5011876;28;20025;-73
2023/07/25 07:44:04;;;;;;;23.10;12.48;;;;;;;27.21;63.72;99405.81;5016232;28;20029;-74
2023/07/25 07:46:30;;;;;;;23.90;12.73;;;;;;;27.40;63.61;99428.50;5013087;28;20068;-74
2023/07/25 07:48:57;;;;;;;28.17;13.23;;;;;;;27.54;63.53;99447.66;5013237;28;20539;-73
2023/07/25 07:51:23;;;;;;;20.38;13.05;;;;;;;27.62;64.59;99453.97;5013492;28;20113;-74
2023/07/25 07:53:49;;;;;;;22.85;12.75;;;;;;;27.61;63.80;99453.19;5013340;28;20113;-73
2023/07/25 07:56:14;;;;;;;19.95;12.13;;;;;;;27.63;63.02;99450.91;5014511;28;20084;-74
2023/07/25 07:58:39;;;;;;;21.30;13.10;;;;;;;27.70;63.30;99458.31;5011078;28;20087;-74
2023/07/25 08:01:16;;;;;;;23.70;13.10;;;;;;;27.73;63.70;99438.69;5021265;28;20030;-74
2023/07/25 08:03:43;;;;;;;23.08;13.23;;;;;;;27.67;62.69;99423.91;5015446;28;20399;-73
2023/07/25 08:06:09;;;;;;;23.65;12.73;;;;;;;27.88;63.09;99418.81;5011062;28;20061;-72
2023/07/25 08:08:34;;;;;;;20.80;11.80;;;;;;;27.93;62.62;99402.28;5016555;28;20064;-73
2023/07/25 08:10:59;;;;;;;22.88;11.98;;;;;;;27.99;62.26;99379.16;5012861;28;20038;-73
2023/07/25 08:13:25;;;;;;;33.78;11.25;;;;;;;28.08;60.83;99346.41;5012233;28;20036;-77
2023/07/25 08:15:50;;;;;;;28.40;11.75;;;;;;;28.25;61.14;99361.28;5020863;28;20033;-78
2023/07/25 08:18:15;;;;;;;23.65;11.48;;;;;;;28.30;59.84;99346.63;5013798;28;20061;-78
2023/07/25 08:20:41;;;;;;;28.50;10.95;;;;;;;28.52;58.92;99366.66;5015195;28;20021;-77
2023/07/25 08:23:06;;;;;;;27.33;11.40;;;;;;;28.52;59.15;99345.75;5013571;28;20018;-74
2023/07/25 08:25:31;;;;;;;21.63;11.10;;;;;;;28.60;57.84;99347.38;5013008;28;20439;-73
2023/07/25 08:27:57;;;;;;;26.85;10.95;;;;;;;28.69;58.26;99352.50;5011634;28;20040;-72
2023/07/25 08:30:22;;;;;;;20.90;10.45;;;;;;;28.86;57.13;99378.22;5013495;28;20036;-72
2023/07/25 08:32:48;;;;;;;23.23;11.07;;;;;;;28.80;57.16;99352.59;5013981;28;20026;-72
2023/07/25 08:35:13;;;;;;;25.85;11.02;;;;;;;28.88;57.60;99359.66;5014383;28;20094;-73
2023/07/25 08:37:38;;;;;;;23.00;11.25;;;;;;;28.99;57.32;99376.00;5015143;28;20113;-73
2023/07/25 08:40:04;;;;;;;27.27;10.10;;;;;;;28.97;56.72;99368.25;5016305;28;20124;-72
2023/07/25 08:42:32;;;;;;;24.05;10.40;;;;;;;29.12;56.73;99380.03;5015696;28;20389;-74
2023/07/25 08:44:59;;;;;;;24.40;11.40;;;;;;;29.20;55.93;99397.13;5017970;28;20053;-75
2023/07/25 08:47:28;;;;;;;18.55;10.52;;;;;;;29.29;56.11;99391.38;5023165;28;20026;-72
2023/07/25 08:49:56;;;;;;;20.80;11.25;;;;;;;29.34;56.11;99396.44;5015960;28;20034;-75
2023/07/25 08:52:27;;;;;;;20.77;11.03;;;;;;;29.44;55.44;99399.22;5019246;28;20018;-75
2023/07/25 08:54:53;;;;;;;20.23;9.98;;;;;;;29.41;54.76;99385.66;5019504;28;20292;-74
2023/07/25 08:57:21;;;;;;;20.45;10.18;;;;;;;29.59;55.12;99404.75;5022446;28;20026;-74
2023/07/25 08:59:50;;;;;;;22.60;10.02;;;;;;;29.68;55.08;99392.44;5015737;28;20034;-76
2023/07/25 09:02:17;;;;;;;25.83;10.38;;;;;;;29.67;53.46;99371.13;5016154;28;20057;-73
2023/07/25 09:04:45;;;;;;;16.52;9.20;;;;;;;29.73;53.08;99380.44;5013773;28;20017;-73
2023/07/25 09:07:11;;;;;;;19.40;9.85;;;;;;;29.73;53.35;99391.31;5017700;28;20044;-72
2023/07/25 09:09:36;;;;;;;23.00;10.32;;;;;;;29.79;52.94;99400.66;5014293;28;20681;-74
2023/07/25 09:12:02;;;;;;;23.73;9.27;;;;;;;29.79;53.27;99387.09;5017070;28;20026;-73
2023/07/25 09:14:27;;;;;;;20.30;9.95;;;;;;;29.82;53.79;99377.41;5020572;28;20119;-72
2023/07/25 09:16:53;;;;;;;19.30;9.13;;;;;;;29.78;53.87;99360.31;5017477;28;20080;-74
2023/07/25 09:19:22;;;;;;;23.17;9.60;;;;;;;29.87;53.72;99368.91;5017254;28;20053;-76
2023/07/25 09:21:48;;;;;;;;;;;;;;;29.99;53.01;99375.94;5018259;28;20053;-73
2023/07/25 09:24:14;;;;;;;21.55;9.82;;;;;;;29.96;53.30;99372.06;5049137;28;20429;-74
2023/07/25 09:26:41;;;;;;;19.33;9.52;;;;;;;30.09;53.75;99365.09;5018141;28;20030;-75
2023/07/25 09:29:07;;;;;;;17.27;8.95;;;;;;;30.19;53.58;99379.88;5016033;28;20034;-72
2023/07/25 09:31:42;;;;;;;18.80;9.65;;;;;;;30.27;53.29;99388.88;5011998;28;20479;-73
2023/07/25 09:34:08;;;;;;;18.48;9.30;;;;;;;30.38;53.69;99395.13;5016581;28;20025;-73
2023/07/25 09:36:33;;;;;;;21.98;9.38;;;;;;;30.46;53.99;99372.25;5015652;28;20120;-75
2023/07/25 09:39:00;;;;;;;27.80;9.60;;;;;;;30.58;53.68;99373.84;5017377;28;20629;-74
2023/07/25 09:41:25;;;;;;;17.27;9.35;;;;;;;30.67;52.96;99362.56;5016461;28;20041;-74
2023/07/25 09:43:51;;;;;;;21.50;9.60;;;;;;;30.61;51.97;99323.38;5013973;28;20026;-73
2023/07/25 09:46:17;;;;;;;25.42;9.77;;;;;;;30.85;52.08;99346.31;5012853;28;20025;-73
2023/07/25 09:48:44;;;;;;;25.63;9.63;;;;;;;31.00;52.20;99339.72;5014347;28;20025;-74
2023/07/25 09:51:11;;;;;;;20.10;9.65;;;;;;;31.10;52.45;99335.44;5012901;28;20384;-72
2023/07/25 09:53:37;;;;;;;24.48;9.25;;;;;;;31.13;52.02;99318.38;5014908;28;20041;-73
2023/07/25 09:56:03;;;;;;;26.25;9.90;;;;;;;31.26;51.40;99313.28;5014346;28;20025;-74
2023/07/25 09:58:29;;;;;;;26.58;9.60;;;;;;;31.34;51.46;99312.88;5018984;28;20048;-73
2023/07/25 10:00:57;;;;;;;20.25;8.95;;;;;;;31.38;50.69;99326.47;5018953;28;20424;-73
2023/07/25 10:03:23;;;;;;;18.67;8.60;;;;;;;31.41;49.37;99325.72;5014195;28;20119;-73
2023/07/25 10:05:49;;;;;;;22.58;9.15;;;;;;;31.52;49.05;99326.47;5017912;28;20495;-73
2023/07/25 10:08:16;;;;;;;28.17;9.38;;;;;;;31.65;49.54;99324.09;5015533;28;20037;-73
2023/07/25 10:10:42;;;;;;;18.20;8.98;;;;;;;31.78;50.20;99333.38;5022150;28;20030;-73
2023/07/25 10:13:09;;;;;;;25.67;8.82;;;;;;;31.88;49.57;99323.63;5014986;28;20400;-71
2023/07/25 10:15:35;;;;;;;25.83;9.38;;;;;;;31.93;48.74;99317.75;5014762;28;20767;-73
2023/07/25 10:18:16;;;;;;;21.13;8.98;;;;;;;32.05;47.56;99318.53;5017944;28;20033;-73
2023/07/25 10:20:41;;;;;;;24.08;9.00;;;;;;;32.07;47.17;99316.19;5021362;28;20108;-73
2023/07/25 10:23:09;;;;;;;23.85;9.00;;;;;;;32.09;46.96;99320.06;5015323;28;20713;-74
2023/07/25 10:25:35;;;;;;;28.20;9.57;;;;;;;32.14;47.99;99321.59;5013411;28;20022;-73
2023/07/25 10:28:04;;;;;;;20.95;8.38;;;;;;;32.17;46.50;99329.72;5017507;28;20033;-73
2023/07/25 10:30:31;;;;;;;16.33;8.40;;;;;;;32.04;46.74;99308.78;5015859;28;20136;-72
2023/07/25 10:33:02;;;;;;;21.08;9.20;;;;;;;32.31;46.49;99347.94;5015343;28;20104;-72
2023/07/25 10:35:46;;;;;;;23.02;8.55;;;;;;;32.35;46.57;99340.53;5013996;28;20026;-71
2023/07/25 10:38:13;;;;;;;27.40;9.73;;;;;;;32.36;46.44;99338.59;5023835;28;20061;-74
2023/07/25 10:40:52;;;;;;;22.17;9.60;;;;;;;32.40;47.14;99331.19;5023961;28;20160;-73
2023/07/25 10:43:19;;;;;;;20.15;8.32;;;;;;;32.43;46.36;99342.03;5016580;28;20021;-73
2023/07/25 10:45:45;;;;;;;23.25;9.07;;;;;;;32.45;45.74;99352.56;5018169;28;20033;-72
2023/07/25 10:48:32;;;;;;;20.50;8.57;;;;;;;32.46;46.29;99345.91;5016983;28;20049;-73
2023/07/25 10:50:59;;;;;;;19.13;8.63;;;;;;;32.54;46.33;99343.94;5016847;28;20309;-77
2023/07/25 10:53:24;;;;;;;20.08;8.52;;;;;;;32.59;45.59;99335.38;5015735;28;20044;-75
2023/07/25 10:56:05;;;;;;;19.75;8.63;;;;;;;32.67;45.83;99333.34;5018136;28;20029;-75
2023/07/25 10:58:37;;;;;;;21.02;8.13;;;;;;;32.72;45.65;99339.16;5018168;28;20021;-78
2023/07/25 11:01:03;;;;;;;26.88;8.00;;;;;;;32.77;46.27;99340.66;5020139;28;20045;-77
2023/07/25 11:03:30;;;;;;;19.35;8.02;;;;;;;32.80;45.48;99329.75;5019725;28;20057;-77
2023/07/25 11:06:19;;;;;;;19.75;7.68;;;;;;;32.93;44.87;99340.94;5017644;28;20022;-75
2023/07/25 11:08:44;;;;;;;;;;;;;;;33.01;45.03;99347.88;5016724;28;20037;-74
2023/07/25 11:11:11;;;;;;;16.60;7.30;;;;;;;33.08;44.68;99332.66;5016645;28;20003;-76
2023/07/25 11:13:40;;;;;;;21.90;7.78;;;;;;;33.12;45.33;99331.44;5016479;28;20025;-72